Time;durP1;ratioP1;P1;durP2;ratioP2;P2;SDS_P1;SDS_P2;PMS_P1;PMS_P2;Temp;Humidity;BMP_temperature;BMP_pressure;BME280_temperature;BME280_humidity;BME280_pressure;Samples;Min_cycle;Max_cycle;Signal;HPM_P1;HPM_P2
2022/08/28 00:01:03;;;;;;;23.00;20.90;;;20.40;99.90;;;;;;5059055;28;20473;-83
2022/08/28 00:03:31;;;;;;;24.10;21.70;;;20.50;99.90;;;;;;5059628;28;20459;-83
2022/08/28 00:05:59;;;;;;;22.30;20.30;;;20.50;99.90;;;;;;5060553;28;20456;-82
2022/08/28 00:08:26;;;;;;;23.53;21.33;;;20.50;99.90;;;;;;5060880;28;20544;-82
2022/08/28 00:10:53;;;;;;;24.27;22.07;;;20.50;99.90;;;;;;5060551;28;20433;-82
2022/08/28 00:13:22;;;;;;;23.90;21.63;;;20.40;99.90;;;;;;5056580;28;20445;-82
2022/08/28 00:15:54;;;;;;;25.43;22.00;;;20.40;99.90;;;;;;5057085;28;20458;-82
2022/08/28 00:18:21;;;;;;;23.70;21.60;;;20.40;99.90;;;;;;5058321;28;20471;-83
2022/08/28 00:20:49;;;;;;;23.30;21.10;;;20.50;99.90;;;;;;5056713;28;20480;-82
2022/08/28 00:23:17;;;;;;;23.27;21.20;;;20.50;99.90;;;;;;5052000;28;20445;-82
2022/08/28 00:25:44;;;;;;;24.10;21.90;;;20.50;99.90;;;;;;5056577;28;20425;-82
2022/08/28 00:28:11;;;;;;;27.17;24.67;;;20.50;99.90;;;;;;5061644;28;20480;-83
2022/08/28 00:30:41;;;;;;;22.80;20.90;;;20.50;99.90;;;;;;5043928;28;20449;-83
2022/08/28 00:33:12;;;;;;;24.97;22.70;;;20.50;99.90;;;;;;5057618;28;20445;-83
2022/08/28 00:35:39;;;;;;;24.20;21.93;;;20.60;99.90;;;;;;5041936;28;20496;-82
2022/08/28 00:38:06;;;;;;;23.83;21.67;;;20.60;99.90;;;;;;5052195;28;20453;-82
2022/08/28 00:40:34;;;;;;;24.73;22.50;;;20.60;99.90;;;;;;5044018;28;20470;-82
2022/08/28 00:43:03;;;;;;;25.03;22.77;;;20.50;99.90;;;;;;5060449;28;20865;-82
2022/08/28 00:45:31;;;;;;;27.00;24.50;;;20.50;99.90;;;;;;5067272;28;20448;-82
2022/08/28 00:47:58;;;;;;;25.53;23.23;;;20.50;99.90;;;;;;5067087;28;20488;-82
2022/08/28 00:50:27;;;;;;;27.23;24.40;;;20.50;99.90;;;;;;5052673;28;20500;-82
2022/08/28 00:52:58;;;;;;;25.70;23.00;;;20.50;99.90;;;;;;5042860;28;20441;-82
2022/08/28 00:55:28;;;;;;;26.50;23.70;;;20.50;99.90;;;;;;5057695;28;20972;-82
2022/08/28 00:57:59;;;;;;;27.07;24.37;;;20.50;99.90;;;;;;5060412;28;20461;-82
2022/08/28 01:00:29;;;;;;;26.40;23.90;;;20.40;99.90;;;;;;5045500;28;20473;-82
2022/08/28 01:02:57;;;;;;;26.37;23.97;;;20.40;99.90;;;;;;5041989;28;20452;-82
2022/08/28 01:05:24;;;;;;;25.77;23.43;;;20.40;99.90;;;;;;5041301;28;20470;-82
2022/08/28 01:07:52;;;;;;;24.30;21.97;;;20.40;99.90;;;;;;5041691;28;20520;-82
2022/08/28 01:10:22;;;;;;;26.03;23.73;;;20.40;99.90;;;;;;5057644;28;20449;-82
2022/08/28 01:12:52;;;;;;;23.83;21.60;;;20.40;99.90;;;;;;5057714;28;20440;-83
2022/08/28 01:15:23;;;;;;;25.30;22.90;;;20.40;99.90;;;;;;5052345;28;20484;-82
2022/08/28 01:18:00;;;;;;;26.57;23.87;;;20.30;99.90;;;;;;5075061;28;20471;-82
2022/08/28 01:20:31;;;;;;;25.17;21.87;;;20.30;99.90;;;;;;5063474;28;21076;-83
2022/08/28 01:23:06;;;;;;;27.20;24.50;;;20.30;99.90;;;;;;5064908;28;20445;-83
2022/08/28 01:25:36;;;;;;;25.33;22.73;;;20.20;99.90;;;;;;5069587;28;20456;-83
2022/08/28 01:28:05;;;;;;;27.10;24.30;;;20.20;99.90;;;;;;5075091;28;20467;-81
2022/08/28 01:30:32;;;;;;;26.33;23.53;;;20.20;99.90;;;;;;5069530;28;20414;-82
2022/08/28 01:32:59;;;;;;;23.57;21.47;;;20.20;99.90;;;;;;5065958;28;20429;-81
2022/08/28 01:35:30;;;;;;;25.53;23.17;;;20.20;99.90;;;;;;5061094;28;20459;-81
2022/08/28 01:37:57;;;;;;;23.43;21.27;;;20.20;99.90;;;;;;5055506;28;20477;-81
2022/08/28 01:40:27;;;;;;;23.53;21.13;;;20.20;99.90;;;;;;5042600;28;20495;-81
2022/08/28 01:42:55;;;;;;;25.20;22.90;;;20.10;99.90;;;;;;5041607;28;20442;-82
2022/08/28 01:45:25;;;;;;;27.50;24.80;;;20.10;99.90;;;;;;5041743;28;20464;-83
2022/08/28 01:47:51;;;;;;;27.80;25.00;;;20.00;99.90;;;;;;5059053;28;20495;-81
2022/08/28 01:50:20;;;;;;;26.70;24.23;;;20.00;99.90;;;;;;5057859;28;20449;-81
2022/08/28 01:52:47;;;;;;;29.70;26.57;;;20.00;99.90;;;;;;5058820;28;20846;-81
2022/08/28 01:55:14;;;;;;;28.43;25.63;;;20.00;99.90;;;;;;5044051;28;20495;-81
2022/08/28 01:57:45;;;;;;;28.83;25.77;;;20.00;99.90;;;;;;5044814;28;20436;-81
2022/08/28 02:00:15;;;;;;;29.73;26.73;;;20.00;99.90;;;;;;5058938;28;20460;-81
2022/08/28 02:03:06;;;;;;;29.07;25.97;;;19.90;99.90;;;;;;5057847;28;20472;-82
2022/08/28 02:05:33;;;;;;;28.83;25.87;;;19.90;99.90;;;;;;5048852;28;20999;-81
2022/08/28 02:08:02;;;;;;;28.10;25.33;;;19.90;99.90;;;;;;5048664;28;20452;-81
2022/08/28 02:10:31;;;;;;;26.57;24.07;;;19.90;99.90;;;;;;5042269;28;20445;-81
2022/08/28 02:12:58;;;;;;;28.80;26.10;;;19.90;99.90;;;;;;5043640;28;20448;-81
2022/08/28 02:15:28;;;;;;;27.77;25.17;;;19.90;99.90;;;;;;5065554;28;20440;-82
2022/08/28 02:17:55;;;;;;;28.37;25.47;;;20.00;99.90;;;;;;5071659;28;20449;-81
2022/08/28 02:20:22;;;;;;;31.57;26.90;;;20.00;99.90;;;;;;5066347;28;20464;-81
2022/08/28 02:22:49;;;;;;;28.33;25.53;;;20.00;99.90;;;;;;5056415;28;20447;-81
2022/08/28 02:25:17;;;;;;;27.33;24.83;;;20.00;99.90;;;;;;5061392;28;20463;-82
2022/08/28 02:27:44;;;;;;;28.47;25.57;;;20.00;99.90;;;;;;5060009;28;20891;-81
2022/08/28 02:30:14;;;;;;;26.60;24.10;;;20.10;99.90;;;;;;5056721;28;20449;-82
2022/08/28 02:32:42;;;;;;;27.37;24.87;;;20.10;99.90;;;;;;5047569;28;20444;-82
2022/08/28 02:35:10;;;;;;;28.30;25.30;;;20.10;99.90;;;;;;5058184;28;20980;-83
2022/08/28 02:37:38;;;;;;;30.93;27.77;;;20.20;99.90;;;;;;5058404;28;20553;-82
2022/08/28 02:40:06;;;;;;;29.57;26.67;;;20.20;99.90;;;;;;5056788;28;20441;-82
2022/08/28 02:42:33;;;;;;;29.77;26.90;;;20.20;99.90;;;;;;5058671;28;20480;-83
2022/08/28 02:44:59;;;;;;;30.07;27.27;;;20.20;99.90;;;;;;5046970;28;20961;-82
2022/08/28 02:47:26;;;;;;;29.17;26.67;;;20.20;99.90;;;;;;5043319;28;20475;-82
2022/08/28 02:49:54;;;;;;;27.90;25.20;;;20.30;99.90;;;;;;5043598;28;20453;-83
2022/08/28 02:52:23;;;;;;;30.10;27.13;;;20.20;99.90;;;;;;5045106;28;20852;-82
2022/08/28 02:54:50;;;;;;;26.97;24.13;;;20.30;99.90;;;;;;5056616;28;20790;-83
2022/08/28 02:57:16;;;;;;;28.93;25.97;;;20.30;99.90;;;;;;5058679;28;20448;-83
2022/08/28 02:59:44;;;;;;;27.83;25.10;;;20.30;99.90;;;;;;5068120;28;20444;-83
2022/08/28 03:02:11;;;;;;;29.30;26.50;;;20.30;99.90;;;;;;5061913;28;20472;-83
2022/08/28 03:04:38;;;;;;;31.00;27.87;;;20.30;99.90;;;;;;5058415;28;20971;-83
2022/08/28 03:07:08;;;;;;;31.23;27.93;;;20.30;99.90;;;;;;5052236;28;20437;-83
2022/08/28 03:09:35;;;;;;;30.10;27.10;;;20.20;99.90;;;;;;5066391;28;20452;-83
2022/08/28 03:12:02;;;;;;;31.43;27.07;;;20.30;99.90;;;;;;5070458;28;20436;-82
2022/08/28 03:14:29;;;;;;;27.70;24.63;;;20.20;99.90;;;;;;5059329;28;20494;-82
2022/08/28 03:16:56;;;;;;;30.43;27.60;;;20.30;99.90;;;;;;5058145;28;21237;-83
2022/08/28 03:19:23;;;;;;;29.37;26.57;;;20.30;99.90;;;;;;5047958;28;20466;-83
2022/08/28 03:21:49;;;;;;;29.20;26.07;;;20.30;99.90;;;;;;5056354;28;20476;-82
2022/08/28 03:24:17;;;;;;;30.10;27.10;;;20.30;99.90;;;;;;5057867;28;20432;-82
2022/08/28 03:26:45;;;;;;;28.87;26.03;;;20.30;99.90;;;;;;5058110;28;20441;-83
2022/08/28 03:29:11;;;;;;;28.90;26.00;;;20.30;99.90;;;;;;5058088;28;20941;-82
2022/08/28 03:31:38;;;;;;;30.07;26.87;;;20.30;99.90;;;;;;5057063;28;20433;-82
2022/08/28 03:34:06;;;;;;;28.77;25.97;;;20.30;99.90;;;;;;5047705;28;21005;-82
2022/08/28 03:36:33;;;;;;;29.93;27.03;;;20.30;99.90;;;;;;5061295;28;20444;-82
2022/08/28 03:39:02;;;;;;;28.30;25.30;;;20.30;99.90;;;;;;5048598;28;20465;-82
2022/08/28 03:41:32;;;;;;;29.77;26.70;;;20.30;99.90;;;;;;5048708;28;20491;-82
2022/08/28 03:44:00;;;;;;;30.43;27.43;;;20.30;99.90;;;;;;5047278;28;20840;-82
2022/08/28 03:46:28;;;;;;;30.07;27.27;;;20.30;99.90;;;;;;5048566;28;20456;-82
2022/08/28 03:48:55;;;;;;;27.13;24.53;;;20.30;99.90;;;;;;5062746;28;20479;-81
2022/08/28 03:51:24;;;;;;;29.37;26.40;;;20.30;99.90;;;;;;5050790;28;20495;-82
2022/08/28 03:53:51;;;;;;;31.10;28.20;;;20.30;99.90;;;;;;5060997;28;20438;-81
2022/08/28 03:56:21;;;;;;;31.73;28.63;;;20.20;99.90;;;;;;5060130;28;20502;-81
2022/08/28 03:58:51;;;;;;;31.00;28.13;;;20.20;99.90;;;;;;5059804;28;20473;-82
2022/08/28 04:01:18;;;;;;;29.93;27.13;;;20.20;99.90;;;;;;5064316;28;20515;-83
2022/08/28 04:03:45;;;;;;;30.07;27.00;;;20.20;99.90;;;;;;5065733;28;20429;-82
2022/08/28 04:06:12;;;;;;;31.60;28.50;;;20.20;99.90;;;;;;5060603;28;20424;-81
2022/08/28 04:08:39;;;;;;;29.70;26.70;;;20.20;99.90;;;;;;5071467;28;20465;-81
2022/08/28 04:11:06;;;;;;;29.73;26.93;;;20.20;99.90;;;;;;5067005;28;20442;-82
2022/08/28 04:13:33;;;;;;;29.23;26.33;;;20.20;99.90;;;;;;5051236;28;20441;-81
2022/08/28 04:16:04;;;;;;;30.80;28.00;;;20.20;99.90;;;;;;5046481;28;20450;-81
2022/08/28 04:18:31;;;;;;;28.30;25.40;;;20.20;99.90;;;;;;5050045;28;20478;-81
2022/08/28 04:20:59;;;;;;;27.67;24.87;;;20.20;99.90;;;;;;5063459;28;20440;-81
2022/08/28 04:23:26;;;;;;;28.73;24.80;;;20.20;99.90;;;;;;5062447;28;20548;-81
2022/08/28 04:25:53;;;;;;;28.70;25.60;;;20.20;99.90;;;;;;5046029;28;20434;-81
2022/08/28 04:28:20;;;;;;;28.83;26.13;;;20.20;99.90;;;;;;5062078;28;20489;-81
2022/08/28 04:30:47;;;;;;;26.60;23.80;;;20.30;99.90;;;;;;5062176;28;20441;-83
2022/08/28 04:33:15;;;;;;;27.00;23.20;;;20.20;99.90;;;;;;5061080;28;20441;-83
2022/08/28 04:35:42;;;;;;;26.27;23.77;;;20.20;99.90;;;;;;5060824;28;20440;-83
2022/08/28 04:38:08;;;;;;;27.90;23.67;;;20.20;99.90;;;;;;5060771;28;20461;-83
2022/08/28 04:40:39;;;;;;;27.30;24.57;;;20.30;99.90;;;;;;5059574;28;20452;-82
2022/08/28 04:43:05;;;;;;;29.30;26.20;;;20.20;99.90;;;;;;5059717;28;20519;-82
2022/08/28 04:45:32;;;;;;;28.17;25.37;;;20.20;99.90;;;;;;5059952;28;20441;-82
2022/08/28 04:47:59;;;;;;;27.37;24.47;;;20.20;99.90;;;;;;5061575;28;20526;-82
2022/08/28 04:50:27;;;;;;;27.77;25.17;;;20.20;99.90;;;;;;5061716;28;20475;-83
2022/08/28 04:52:54;;;;;;;28.73;24.43;;;20.30;99.90;;;;;;5059818;28;20437;-82
2022/08/28 04:55:20;;;;;;;26.47;23.73;;;20.30;99.90;;;;;;5059406;28;20452;-82
2022/08/28 04:57:47;;;;;;;27.13;24.20;;;20.30;99.90;;;;;;5061610;28;20993;-83
2022/08/28 05:00:14;;;;;;;25.40;22.77;;;20.30;99.90;;;;;;5068888;28;20449;-82
2022/08/28 05:02:42;;;;;;;25.77;23.30;;;20.30;99.90;;;;;;5071644;28;20461;-83
2022/08/28 05:05:10;;;;;;;24.10;21.80;;;20.30;99.90;;;;;;5069090;28;20495;-81
2022/08/28 05:07:38;;;;;;;26.77;24.10;;;20.30;99.90;;;;;;5051610;28;20441;-82
2022/08/28 05:10:06;;;;;;;25.77;23.37;;;20.30;99.90;;;;;;5060234;28;20437;-83
2022/08/28 05:12:35;;;;;;;28.47;25.77;;;20.30;99.90;;;;;;5069708;28;20469;-82
2022/08/28 05:15:02;;;;;;;27.20;24.90;;;20.30;99.90;;;;;;5065477;28;20437;-83
2022/08/28 05:17:29;;;;;;;28.07;25.53;;;20.30;99.90;;;;;;5061993;28;20442;-82
2022/08/28 05:19:55;;;;;;;29.23;26.50;;;20.30;99.90;;;;;;5050381;28;20482;-82
2022/08/28 05:22:23;;;;;;;28.60;25.70;;;20.40;99.90;;;;;;5047998;28;20476;-82
2022/08/28 05:24:51;;;;;;;29.80;26.97;;;20.40;99.90;;;;;;5058136;28;20473;-83
2022/08/28 05:27:17;;;;;;;28.83;25.30;;;20.40;99.90;;;;;;5061303;28;20519;-83
2022/08/28 05:29:44;;;;;;;27.97;25.27;;;20.40;99.90;;;;;;5060129;28;20469;-83
2022/08/28 05:32:11;;;;;;;27.80;25.10;;;20.40;99.90;;;;;;5061480;28;20510;-83
2022/08/28 05:34:37;;;;;;;29.93;25.33;;;20.40;99.90;;;;;;5059472;28;20433;-83
2022/08/28 05:37:05;;;;;;;28.80;25.83;;;20.40;99.90;;;;;;5058350;28;20467;-83
2022/08/28 05:39:32;;;;;;;28.73;25.73;;;20.40;99.90;;;;;;5060378;28;20457;-82
2022/08/28 05:42:00;;;;;;;28.73;25.40;;;20.40;99.90;;;;;;5060687;28;20487;-82
2022/08/28 05:44:26;;;;;;;26.27;23.77;;;20.40;99.90;;;;;;5062077;28;20518;-82
2022/08/28 05:46:53;;;;;;;29.10;26.30;;;20.50;99.90;;;;;;5062284;28;20490;-82
2022/08/28 05:49:20;;;;;;;27.07;24.40;;;20.50;99.90;;;;;;5061063;28;20464;-83
2022/08/28 05:51:47;;;;;;;26.10;23.60;;;20.50;99.90;;;;;;5054270;28;20498;-83
2022/08/28 05:54:14;;;;;;;25.80;23.10;;;20.60;99.90;;;;;;5056363;28;20421;-82
2022/08/28 05:56:42;;;;;;;26.57;24.00;;;20.60;99.90;;;;;;5072140;28;20434;-83
2022/08/28 05:59:11;;;;;;;25.67;22.37;;;20.70;99.90;;;;;;5062137;28;20449;-82
2022/08/28 06:01:40;;;;;;;25.17;22.80;;;20.70;99.90;;;;;;5058886;28;20436;-81
2022/08/28 06:04:11;;;;;;;24.43;22.23;;;20.70;99.90;;;;;;5059855;28;20452;-82
2022/08/28 06:06:40;;;;;;;24.07;21.83;;;20.70;99.90;;;;;;5060598;28;20441;-82
2022/08/28 06:09:09;;;;;;;24.87;22.50;;;20.80;99.90;;;;;;5060848;28;20456;-82
2022/08/28 06:11:37;;;;;;;23.93;21.53;;;20.80;99.90;;;;;;5060798;28;20884;-82
2022/08/28 06:14:08;;;;;;;23.13;20.83;;;20.90;99.90;;;;;;5061420;28;20525;-82
2022/08/28 06:16:37;;;;;;;22.63;20.60;;;20.90;99.90;;;;;;5061906;28;20437;-82
2022/08/28 06:19:04;;;;;;;21.27;19.07;;;21.00;99.90;;;;;;5060675;28;20926;-82
2022/08/28 06:21:32;;;;;;;21.37;19.37;;;21.00;99.90;;;;;;5061083;28;20451;-82
2022/08/28 06:23:59;;;;;;;21.27;19.17;;;21.10;99.90;;;;;;5057078;28;20488;-82
2022/08/28 06:26:26;;;;;;;21.83;19.77;;;21.20;99.90;;;;;;5071735;28;20811;-82
2022/08/28 06:28:53;;;;;;;19.20;17.30;;;21.20;99.90;;;;;;5061758;28;20491;-82
2022/08/28 06:31:20;;;;;;;22.80;20.50;;;21.30;99.90;;;;;;5068775;28;20447;-83
2022/08/28 06:33:48;;;;;;;21.63;19.53;;;21.30;99.90;;;;;;5060118;28;20829;-82
2022/08/28 06:36:15;;;;;;;20.57;18.57;;;21.40;99.90;;;;;;5057202;28;20441;-82
2022/08/28 06:38:45;;;;;;;19.27;17.33;;;21.50;99.90;;;;;;5058196;28;20464;-81
2022/08/28 06:41:12;;;;;;;19.60;17.70;;;21.60;99.90;;;;;;5056706;28;20522;-84
2022/08/28 06:43:39;;;;;;;20.50;18.63;;;21.70;99.90;;;;;;5046339;28;20854;-83
2022/08/28 06:46:06;;;;;;;18.30;16.60;;;21.90;99.90;;;;;;5056657;28;20433;-84
2022/08/28 06:48:32;;;;;;;19.30;17.30;;;22.10;99.90;;;;;;5057394;28;20463;-80
2022/08/28 06:51:01;;;;;;;17.17;15.60;;;22.20;99.90;;;;;;5058453;28;20441;-83
2022/08/28 06:53:30;;;;;;;20.20;16.13;;;22.30;99.90;;;;;;5058002;28;20452;-81
2022/08/28 06:55:59;;;;;;;16.20;14.70;;;22.30;99.90;;;;;;5050561;28;20483;-81
2022/08/28 06:58:27;;;;;;;16.30;14.80;;;22.40;99.90;;;;;;5069531;28;20445;-83
2022/08/28 07:01:01;;;;;;;16.10;14.60;;;22.40;99.90;;;;;;5055969;28;20441;-83
2022/08/28 07:03:29;;;;;;;16.27;14.80;;;22.50;99.90;;;;;;5055324;28;20477;-83
2022/08/28 07:05:57;;;;;;;16.23;14.70;;;22.60;99.90;;;;;;5055369;28;20479;-83
2022/08/28 07:08:29;;;;;;;16.43;14.90;;;22.60;99.90;;;;;;5061861;28;20480;-83
2022/08/28 07:10:56;;;;;;;16.80;15.30;;;22.60;99.90;;;;;;5065152;28;20429;-83
2022/08/28 07:13:23;;;;;;;16.17;14.73;;;22.60;99.90;;;;;;5064842;28;20467;-83
2022/08/28 07:15:50;;;;;;;16.17;14.70;;;22.60;99.90;;;;;;5062538;28;20445;-83
2022/08/28 07:18:17;;;;;;;16.93;15.33;;;22.60;99.90;;;;;;5058070;28;20468;-83
2022/08/28 07:20:44;;;;;;;15.50;13.97;;;22.50;99.90;;;;;;5048966;28;20463;-83
2022/08/28 07:23:11;;;;;;;16.40;14.87;;;22.50;99.90;;;;;;5049441;28;20488;-83
2022/08/28 07:25:41;;;;;;;16.50;15.00;;;22.50;99.90;;;;;;5049349;28;20449;-81
2022/08/28 07:28:08;;;;;;;16.83;15.40;;;22.60;99.90;;;;;;5061806;28;20460;-84
2022/08/28 07:30:34;;;;;;;16.83;15.27;;;22.40;99.90;;;;;;5070767;28;20508;-83
2022/08/28 07:33:01;;;;;;;18.97;17.17;;;22.30;99.90;;;;;;5066457;28;20506;-84
2022/08/28 07:35:28;;;;;;;16.60;14.90;;;22.20;99.90;;;;;;5064594;28;20445;-83
2022/08/28 07:37:54;;;;;;;16.27;14.63;;;22.40;99.90;;;;;;5065105;28;20461;-83
2022/08/28 07:40:21;;;;;;;16.53;15.00;;;22.50;99.90;;;;;;5063412;28;21274;-83
2022/08/28 07:45:34;;;;;;;18.80;16.90;;;22.50;99.90;;;;;;5066615;28;20436;-82
2022/08/28 07:48:05;;;;;;;18.67;16.90;;;22.30;99.90;;;;;;5066806;28;20548;-83
2022/08/28 07:50:31;;;;;;;18.00;16.27;;;22.20;99.90;;;;;;5071555;28;20444;-83
2022/08/28 07:52:58;;;;;;;17.40;15.83;;;22.30;99.90;;;;;;5065683;28;20425;-83
2022/08/28 07:55:26;;;;;;;17.77;16.10;;;22.30;99.90;;;;;;5064876;28;20456;-81
2022/08/28 07:57:54;;;;;;;19.33;17.33;;;22.40;99.90;;;;;;5063324;28;20465;-82
2022/08/28 08:00:21;;;;;;;17.83;16.33;;;22.30;99.90;;;;;;5059968;28;20437;-82
2022/08/28 08:02:48;;;;;;;18.63;16.83;;;22.30;99.90;;;;;;5061233;28;20472;-82
2022/08/28 08:05:14;;;;;;;18.43;15.97;;;22.60;99.90;;;;;;5059922;28;20437;-82
2022/08/28 08:07:41;;;;;;;18.33;16.70;;;23.00;99.90;;;;;;5055267;28;20704;-83
2022/08/28 08:10:12;;;;;;;17.20;15.60;;;23.30;99.90;;;;;;5046985;28;20446;-82
2022/08/28 08:12:41;;;;;;;15.10;13.80;;;23.50;99.90;;;;;;5059353;28;20449;-82
2022/08/28 08:15:10;;;;;;;17.10;15.70;;;23.50;99.90;;;;;;5057724;28;20450;-82
2022/08/28 08:17:37;;;;;;;17.87;16.17;;;23.30;99.90;;;;;;5061139;28;20442;-82
2022/08/28 08:20:05;;;;;;;17.97;16.37;;;23.20;99.90;;;;;;5053837;28;20434;-83
2022/08/28 08:22:32;;;;;;;15.93;14.53;;;23.10;99.90;;;;;;5072592;28;20483;-83
2022/08/28 08:24:59;;;;;;;15.73;14.37;;;23.20;99.90;;;;;;5060916;28;20488;-83
2022/08/28 08:27:26;;;;;;;16.27;14.73;;;23.20;99.90;;;;;;5059143;28;20441;-83
2022/08/28 08:29:52;;;;;;;16.57;15.00;;;23.40;99.90;;;;;;5054676;28;20477;-83
2022/08/28 08:32:20;;;;;;;15.27;13.80;;;23.60;99.90;;;;;;5056652;28;20450;-82
2022/08/28 08:34:48;;;;;;;15.53;13.93;;;23.80;99.90;;;;;;5056149;28;20434;-83
2022/08/28 08:37:15;;;;;;;15.90;14.40;;;24.00;99.90;;;;;;5055308;28;20520;-83
2022/08/28 08:39:43;;;;;;;14.57;13.27;;;24.20;99.90;;;;;;5055288;28;20471;-82
2022/08/28 08:42:20;;;;;;;14.37;13.17;;;24.20;99.90;;;;;;5054859;28;20449;-83
2022/08/28 08:44:49;;;;;;;15.67;14.17;;;24.50;99.90;;;;;;5054178;28;20442;-84
2022/08/28 08:47:21;;;;;;;13.97;12.60;;;24.80;99.90;;;;;;5054450;28;20935;-81
2022/08/28 08:49:52;;;;;;;15.07;12.97;;;25.10;99.90;;;;;;5052323;28;20471;-85
2022/08/28 08:52:34;;;;;;;12.63;11.37;;;25.70;99.90;;;;;;5052731;28;20447;-83
2022/08/28 08:55:16;;;;;;;15.10;13.70;;;26.10;99.90;;;;;;5066867;28;20446;-83
2022/08/28 08:57:45;;;;;;;14.60;13.20;;;26.40;99.90;;;;;;5067752;28;20436;-83
2022/08/28 09:00:13;;;;;;;13.87;12.50;;;26.70;99.90;;;;;;5055816;28;20465;-83
2022/08/28 09:02:45;;;;;;;13.60;12.27;;;27.00;99.90;;;;;;5055837;28;20445;-83
2022/08/28 09:05:18;;;;;;;12.90;11.77;;;27.40;99.90;;;;;;5053242;28;20510;-84
2022/08/28 09:07:51;;;;;;;14.30;12.90;;;27.70;99.00;;;;;;5052928;28;21018;-82
2022/08/28 09:10:18;;;;;;;12.93;11.83;;;27.90;97.90;;;;;;5052423;28;20446;-83
2022/08/28 09:12:53;;;;;;;13.40;12.10;;;27.80;97.30;;;;;;5052550;28;20448;-83
2022/08/28 09:15:27;;;;;;;14.23;12.27;;;27.70;97.30;;;;;;5048246;28;20465;-83
2022/08/28 09:18:02;;;;;;;13.00;11.70;;;27.80;97.10;;;;;;5055770;28;20458;-83
2022/08/28 09:20:30;;;;;;;13.50;12.30;;;28.30;96.80;;;;;;5060345;28;20498;-82
2022/08/28 09:22:57;;;;;;;13.13;11.73;;;28.50;95.50;;;;;;5054778;28;20486;-82
2022/08/28 09:25:47;;;;;;;12.20;11.00;;;28.70;94.60;;;;;;5052500;28;21135;-82
2022/08/28 09:28:22;;;;;;;12.40;11.10;;;30.10;93.10;;;;;;5053288;28;20481;-83
2022/08/28 09:30:56;;;;;;;11.37;10.37;;;31.50;89.90;;;;;;5054367;28;20887;-84
2022/08/28 09:33:40;;;;;;;11.37;10.30;;;31.50;85.90;;;;;;5052883;28;20441;-84
2022/08/28 09:36:26;;;;;;;11.00;10.10;;;31.10;84.30;;;;;;5049890;28;20813;-83
2022/08/28 09:39:12;;;;;;;12.37;11.00;;;31.20;83.30;;;;;;5062789;28;20460;-84
2022/08/28 09:44:47;;;;;;;10.83;9.90;;;32.60;79.60;;;;;;5051912;28;20532;-83
2022/08/28 09:47:44;;;;;;;10.23;9.27;;;34.40;74.00;;;;;;5051874;28;20435;-83
2022/08/28 09:50:27;;;;;;;11.80;10.40;;;34.10;70.40;;;;;;5051616;28;20500;-84
2022/08/28 09:52:57;;;;;;;12.00;9.70;;;33.20;70.80;;;;;;5051293;28;20439;-83
2022/08/28 09:55:35;;;;;;;12.47;11.17;;;31.90;74.10;;;;;;5059432;28;20445;-83
2022/08/28 09:58:03;;;;;;;11.17;10.27;;;30.90;78.40;;;;;;5070442;28;20825;-83
2022/08/28 10:00:35;;;;;;;11.30;10.37;;;30.20;79.90;;;;;;5071231;28;20444;-84
2022/08/28 10:03:13;;;;;;;11.77;10.70;;;30.10;81.40;;;;;;5060226;28;20474;-82
2022/08/28 10:05:50;;;;;;;10.10;9.40;;;31.00;79.20;;;;;;5057655;28;20445;-82
2022/08/28 10:08:27;;;;;;;11.13;10.23;;;30.60;78.60;;;;;;5063296;28;20464;-82
2022/08/28 10:10:58;;;;;;;11.80;10.60;;;30.00;80.50;;;;;;5056356;28;20432;-82
2022/08/28 10:13:30;;;;;;;10.70;9.77;;;29.60;83.00;;;;;;5058162;28;20435;-82
2022/08/28 10:16:13;;;;;;;11.67;10.57;;;29.20;84.20;;;;;;5050904;28;21109;-82
2022/08/28 10:18:47;;;;;;;11.00;10.10;;;29.30;85.60;;;;;;5051071;28;20490;-82
2022/08/28 10:21:21;;;;;;;10.20;9.43;;;31.00;83.10;;;;;;5051571;28;20436;-83
2022/08/28 10:24:17;;;;;;;11.03;9.83;;;33.30;72.80;;;;;;5051307;28;20522;-83
2022/08/28 10:26:51;;;;;;;9.60;8.70;;;33.00;70.00;;;;;;5048848;28;20454;-83
2022/08/28 10:29:31;;;;;;;9.90;9.03;;;32.60;71.10;;;;;;5050985;28;20581;-83
2022/08/28 10:32:13;;;;;;;9.93;9.03;;;32.90;70.50;;;;;;5050410;28;20511;-84
2022/08/28 10:34:50;;;;;;;9.27;8.57;;;35.00;65.90;;;;;;5051732;28;20446;-83
2022/08/28 10:37:29;;;;;;;9.40;8.60;;;35.80;60.50;;;;;;5051987;28;20826;-83
2022/08/28 10:39:59;;;;;;;9.10;8.20;;;35.00;60.20;;;;;;5059512;28;20524;-83
2022/08/28 10:42:31;;;;;;;9.00;8.30;;;33.90;62.40;;;;;;5057046;28;20434;-83
2022/08/28 10:45:03;;;;;;;9.97;9.07;;;33.10;63.60;;;;;;5055434;28;20491;-83
2022/08/28 10:47:34;;;;;;;10.07;9.27;;;32.50;64.90;;;;;;5067011;28;20440;-83
2022/08/28 10:50:07;;;;;;;12.60;9.40;;;31.80;67.40;;;;;;5076962;28;20416;-82
2022/08/28 10:52:38;;;;;;;9.40;8.60;;;32.00;68.20;;;;;;5066539;28;21050;-83
2022/08/28 10:55:13;;;;;;;9.00;8.30;;;34.80;64.20;;;;;;5056877;28;20436;-83
2022/08/28 10:57:44;;;;;;;7.77;7.20;;;37.70;57.30;;;;;;5055317;28;20503;-83
2022/08/28 11:00:14;;;;;;;7.80;7.00;;;39.90;52.00;;;;;;5054941;28;20960;-83
2022/08/28 11:02:48;;;;;;;8.83;8.13;;;40.50;48.50;;;;;;5054365;28;20440;-83
2022/08/28 11:05:20;;;;;;;8.30;7.50;;;40.30;47.20;;;;;;5055360;28;20567;-84
2022/08/28 11:07:51;;;;;;;9.43;8.63;;;41.10;46.50;;;;;;5051067;28;20460;-84
2022/08/28 11:10:23;;;;;;;8.30;7.50;;;42.20;44.50;;;;;;5054355;28;20452;-83
2022/08/28 11:12:52;;;;;;;8.83;7.20;;;42.50;42.90;;;;;;5055700;28;20453;-83
2022/08/28 11:15:44;;;;;;;8.43;7.63;;;42.30;41.60;;;;;;5053337;28;20477;-83
2022/08/28 11:18:40;;;;;;;8.27;7.53;;;42.60;40.20;;;;;;5054530;28;20457;-82
2022/08/28 11:21:12;;;;;;;8.87;6.87;;;41.60;41.00;;;;;;5052642;28;20527;-83
2022/08/28 11:23:47;;;;;;;8.47;7.67;;;42.60;40.70;;;;;;5053900;28;20477;-83
2022/08/28 11:26:26;;;;;;;7.43;6.80;;;42.10;39.40;;;;;;5054890;28;20452;-83
2022/08/28 11:28:53;;;;;;;7.53;6.93;;;42.30;39.20;;;;;;5046701;28;20476;-83
2022/08/28 11:31:30;;;;;;;7.77;7.17;;;40.80;40.50;;;;;;5053912;28;20455;-83
2022/08/28 11:33:58;;;;;;;7.13;6.60;;;39.00;42.60;;;;;;5065111;28;20453;-83
2022/08/28 11:36:58;;;;;;;8.17;7.50;;;37.00;45.80;;;;;;5091524;22;21117;-83
2022/08/28 11:39:25;;;;;;;7.77;7.17;;;33.80;49.70;;;;;;5082003;28;20441;-84
2022/08/28 11:42:30;;;;;;;8.87;7.83;;;32.60;53.70;;;;;;5074953;28;20438;-83
2022/08/28 11:44:59;;;;;;;9.60;7.53;;;31.70;57.20;;;;;;5070060;28;20472;-82
2022/08/28 11:47:45;;;;;;;9.50;8.70;;;31.20;59.30;;;;;;5073069;28;20442;-82
2022/08/28 11:50:17;;;;;;;14.47;9.50;;;30.80;60.90;;;;;;5075522;28;20456;-82
2022/08/28 11:53:12;;;;;;;8.50;7.70;;;30.70;62.10;;;;;;5071112;28;20448;-82
2022/08/28 11:55:57;;;;;;;7.77;7.00;;;30.70;63.30;;;;;;5077955;28;20813;-81
2022/08/28 11:58:31;;;;;;;7.90;7.20;;;30.20;60.40;;;;;;5078396;28;20444;-81
2022/08/28 12:01:04;;;;;;;9.70;7.87;;;30.20;60.70;;;;;;5070205;28;20562;-82
2022/08/28 12:03:35;;;;;;;8.57;7.87;;;32.40;59.50;;;;;;5066551;28;20469;-82
2022/08/28 12:06:05;;;;;;;9.10;7.87;;;35.00;55.20;;;;;;5067097;28;20457;-82
2022/08/28 12:09:11;;;;;;;7.80;7.17;;;36.50;51.90;;;;;;5083702;28;20481;-81
2022/08/28 12:11:53;;;;;;;7.83;7.03;;;37.00;50.50;;;;;;5074622;28;20447;-82
2022/08/28 12:15:07;;;;;;;7.70;6.90;;;38.10;48.60;;;;;;5070516;28;20480;-82
2022/08/28 12:17:50;;;;;;;7.23;6.63;;;39.20;46.50;;;;;;5071959;28;20463;-81
2022/08/28 12:20:38;;;;;;;6.97;6.37;;;39.10;44.10;;;;;;5071845;28;20441;-82
2022/08/28 12:23:30;;;;;;;7.73;7.03;;;40.00;42.80;;;;;;5072614;28;20800;-81
2022/08/28 12:26:01;;;;;;;6.37;5.87;;;40.80;41.90;;;;;;5069368;28;20514;-82
2022/08/28 12:28:30;;;;;;;6.50;5.90;;;41.10;41.00;;;;;;5073447;28;20447;-81
2022/08/28 12:31:15;;;;;;;6.67;6.07;;;41.40;40.70;;;;;;5071462;28;20441;-81
2022/08/28 12:33:51;;;;;;;7.50;6.90;;;41.60;40.00;;;;;;5071933;28;20437;-82
2022/08/28 12:36:25;;;;;;;7.23;6.33;;;41.10;40.30;;;;;;5072312;28;20780;-83
2022/08/28 12:38:54;;;;;;;7.30;6.70;;;39.10;43.20;;;;;;5071686;28;20444;-83
2022/08/28 12:41:22;;;;;;;7.70;7.10;;;36.90;46.10;;;;;;5078039;28;20438;-83
2022/08/28 12:43:52;;;;;;;8.37;7.57;;;35.10;48.90;;;;;;5073593;28;20504;-83
2022/08/28 12:46:29;;;;;;;7.90;7.20;;;35.10;50.70;;;;;;5068749;28;20466;-83
2022/08/28 12:48:59;;;;;;;8.07;7.27;;;36.10;49.30;;;;;;5070092;28;20439;-82
2022/08/28 12:51:29;;;;;;;7.33;6.57;;;37.40;47.00;;;;;;5074313;28;20518;-81
2022/08/28 12:53:58;;;;;;;8.77;7.40;;;39.10;45.00;;;;;;5081288;28;20501;-81